Time;durP1;ratioP1;P1;durP2;ratioP2;P2;SDS_P1;SDS_P2;PMS_P1;PMS_P2;Temp;Humidity;BMP_temperature;BMP_pressure;BME280_temperature;BME280_humidity;BME280_pressure;Samples;Min_cycle;Max_cycle;Signal;HPM_P1;HPM_P2
2023/05/12 00:00:40;;;;;;;23.95;5.07;;;15.80;92.90;;;;;;4986017;28;20030;-54
2023/05/12 00:03:05;;;;;;;23.60;4.53;;;15.80;92.90;;;;;;5020595;28;20034;-54
2023/05/12 00:05:31;;;;;;;18.58;4.45;;;15.80;92.90;;;;;;4986547;28;20107;-54
2023/05/12 00:07:56;;;;;;;19.33;4.03;;;15.80;92.90;;;;;;4989467;28;20487;-54
2023/05/12 00:10:22;;;;;;;28.88;4.63;;;15.80;92.90;;;;;;4971023;28;20035;-54
2023/05/12 00:12:47;;;;;;;12.00;3.40;;;15.70;92.90;;;;;;4987889;28;20031;-53
2023/05/12 00:15:13;;;;;;;23.98;3.97;;;15.70;92.90;;;;;;4971185;28;20039;-54
2023/05/12 00:17:39;;;;;;;12.07;3.80;;;15.70;92.90;;;;;;4987221;28;20038;-54
2023/05/12 00:20:05;;;;;;;14.93;3.47;;;15.70;92.90;;;;;;4987073;28;20049;-54
2023/05/12 00:22:30;;;;;;;19.02;3.70;;;15.70;92.90;;;;;;4987282;28;20110;-54
2023/05/12 00:24:56;;;;;;;16.85;3.88;;;15.70;92.90;;;;;;4986465;28;20034;-54
2023/05/12 00:27:21;;;;;;;13.43;3.45;;;15.60;93.20;;;;;;4986091;28;20023;-54
2023/05/12 00:29:47;;;;;;;20.23;3.88;;;15.60;92.90;;;;;;4988070;28;20031;-54
2023/05/12 00:32:13;;;;;;;18.85;3.47;;;15.60;92.90;;;;;;5020116;28;20098;-54
2023/05/12 00:34:38;;;;;;;14.55;3.45;;;15.60;92.90;;;;;;4988078;28;20035;-54
2023/05/12 00:37:04;;;;;;;18.77;3.75;;;15.60;93.00;;;;;;4987895;28;20110;-54
2023/05/12 00:39:30;;;;;;;18.58;3.83;;;15.60;93.30;;;;;;4987645;28;20050;-54
2023/05/12 00:41:56;;;;;;;14.00;3.03;;;15.50;93.00;;;;;;4988246;28;20091;-54
2023/05/12 00:44:22;;;;;;;18.15;3.60;;;15.60;93.10;;;;;;4987144;28;20113;-54
2023/05/12 00:46:47;;;;;;;11.90;3.30;;;15.50;93.00;;;;;;4987014;28;20041;-54
2023/05/12 00:49:13;;;;;;;22.33;2.65;;;15.50;93.00;;;;;;4987338;28;20482;-54
2023/05/12 00:51:38;;;;;;;10.98;3.42;;;15.50;93.00;;;;;;4985534;28;20030;-54
2023/05/12 00:54:04;;;;;;;15.85;3.33;;;15.50;93.00;;;;;;4987434;28;20042;-54
2023/05/12 00:56:30;;;;;;;8.35;2.53;;;15.50;93.00;;;;;;4986394;28;20034;-54
2023/05/12 00:58:55;;;;;;;15.82;2.60;;;15.50;93.00;;;;;;4985383;28;20038;-54
2023/05/12 01:01:21;;;;;;;14.38;2.60;;;15.50;93.10;;;;;;4986092;28;20074;-54
2023/05/12 01:03:46;;;;;;;12.93;3.00;;;15.40;93.10;;;;;;4985790;28;20031;-54
2023/05/12 01:06:31;;;;;;;11.60;2.88;;;15.50;93.10;;;;;;4986271;28;20099;-53
2023/05/12 01:08:57;;;;;;;14.93;3.43;;;15.50;93.10;;;;;;4986795;28;20041;-54
2023/05/12 01:11:23;;;;;;;14.38;2.50;;;15.40;93.10;;;;;;4986622;28;20345;-54
2023/05/12 01:13:48;;;;;;;8.27;2.97;;;15.40;93.10;;;;;;4987656;28;20047;-54
2023/05/12 01:16:14;;;;;;;16.90;3.08;;;15.40;93.20;;;;;;4985618;28;20042;-51
2023/05/12 01:18:40;;;;;;;8.43;2.65;;;15.40;93.20;;;;;;4988242;28;20046;-53
2023/05/12 01:21:05;;;;;;;12.57;2.85;;;15.40;93.20;;;;;;4987594;28;20090;-54
2023/05/12 01:23:34;;;;;;;9.00;2.60;;;15.40;93.20;;;;;;4986623;28;20041;-54
2023/05/12 01:26:07;;;;;;;8.40;2.85;;;15.30;93.20;;;;;;4986828;28;20031;-54
2023/05/12 01:28:33;;;;;;;12.80;3.20;;;15.30;93.20;;;;;;4986701;28;20031;-53
2023/05/12 01:30:59;;;;;;;8.75;3.13;;;15.30;93.30;;;;;;4970204;28;20474;-54
2023/05/12 01:33:24;;;;;;;9.35;3.30;;;15.30;93.30;;;;;;4986568;28;20023;-54
2023/05/12 01:35:50;;;;;;;10.95;3.25;;;15.30;93.30;;;;;;4986047;28;20035;-54
2023/05/12 01:38:15;;;;;;;14.05;3.63;;;15.30;93.30;;;;;;4986364;28;20034;-54
2023/05/12 01:40:41;;;;;;;12.10;2.97;;;15.30;93.30;;;;;;4986348;28;20081;-54
2023/05/12 01:43:06;;;;;;;5.30;3.00;;;15.30;93.30;;;;;;4987351;28;20086;-54
2023/05/12 01:45:32;;;;;;;9.23;2.78;;;15.30;93.30;;;;;;4986050;28;20333;-54
2023/05/12 01:47:57;;;;;;;7.05;2.45;;;15.30;93.30;;;;;;4985836;28;20109;-54
2023/05/12 01:50:23;;;;;;;7.70;2.83;;;15.30;93.40;;;;;;4984361;28;20408;-54
2023/05/12 01:52:48;;;;;;;6.85;2.55;;;15.30;93.40;;;;;;4985550;28;20037;-54
2023/05/12 01:55:15;;;;;;;8.25;3.00;;;15.30;93.40;;;;;;4986325;28;20031;-54
2023/05/12 01:57:40;;;;;;;7.38;2.25;;;15.30;93.50;;;;;;4985664;28;20035;-54
2023/05/12 02:00:06;;;;;;;4.40;2.42;;;15.30;93.50;;;;;;4985270;28;20094;-54
2023/05/12 02:02:33;;;;;;;8.68;3.25;;;15.20;93.50;;;;;;4986139;28;20027;-54
2023/05/12 02:04:58;;;;;;;10.45;3.67;;;15.20;93.50;;;;;;4986396;28;20038;-54
2023/05/12 02:07:24;;;;;;;10.75;3.17;;;15.20;93.50;;;;;;4984858;28;20027;-54
2023/05/12 02:09:50;;;;;;;11.85;3.88;;;15.20;93.50;;;;;;4985112;28;20049;-54
2023/05/12 02:12:15;;;;;;;13.38;3.70;;;15.20;93.60;;;;;;4985675;28;20031;-54
2023/05/12 02:14:41;;;;;;;5.80;2.55;;;15.20;93.60;;;;;;4985312;28;20038;-54
2023/05/12 02:17:06;;;;;;;6.93;2.60;;;15.20;93.60;;;;;;4985439;28;20038;-54
2023/05/12 02:19:32;;;;;;;7.15;3.17;;;15.20;93.70;;;;;;4984388;28;20058;-54
2023/05/12 02:21:58;;;;;;;7.55;3.15;;;15.20;93.70;;;;;;4985056;28;20042;-53
2023/05/12 02:24:23;;;;;;;7.10;3.10;;;15.20;93.70;;;;;;4987160;28;20031;-54
2023/05/12 02:26:49;;;;;;;7.47;3.03;;;15.20;93.70;;;;;;4983985;28;20027;-54
2023/05/12 02:29:14;;;;;;;8.07;4.30;;;15.20;93.70;;;;;;4985326;28;20093;-54
2023/05/12 02:31:40;;;;;;;7.90;4.43;;;15.20;93.70;;;;;;4985951;28;20058;-54
2023/05/12 02:34:05;;;;;;;8.65;4.07;;;15.20;93.70;;;;;;4985925;28;20037;-54
2023/05/12 02:36:31;;;;;;;12.77;3.92;;;15.20;93.70;;;;;;4967812;28;20038;-54
2023/05/12 02:38:57;;;;;;;10.40;3.38;;;15.20;93.70;;;;;;4984868;28;20035;-54
2023/05/12 02:41:23;;;;;;;8.60;3.40;;;15.20;94.10;;;;;;4984635;28;20085;-54
2023/05/12 02:43:48;;;;;;;7.72;3.38;;;15.20;93.80;;;;;;4985276;28;20022;-54
2023/05/12 02:46:14;;;;;;;7.72;3.35;;;15.20;93.80;;;;;;4984982;28;20035;-54
2023/05/12 02:48:39;;;;;;;12.27;3.78;;;15.20;93.80;;;;;;4967346;28;20038;-54
2023/05/12 02:51:05;;;;;;;7.43;3.53;;;15.20;93.90;;;;;;4985373;28;20027;-54
2023/05/12 02:53:30;;;;;;;6.80;3.30;;;15.20;93.90;;;;;;4985894;28;20035;-54
2023/05/12 02:55:56;;;;;;;7.20;3.70;;;15.20;93.90;;;;;;4985760;28;20118;-54
2023/05/12 02:58:21;;;;;;;8.32;3.97;;;15.10;93.90;;;;;;4984024;28;20038;-54
2023/05/12 03:00:47;;;;;;;6.95;3.45;;;15.10;93.90;;;;;;4983478;28;20089;-54
2023/05/12 03:03:12;;;;;;;8.70;3.90;;;15.10;94.00;;;;;;4984088;28;20034;-54
2023/05/12 03:05:38;;;;;;;10.05;4.25;;;15.10;94.00;;;;;;4982764;28;20045;-54
2023/05/12 03:08:04;;;;;;;9.75;4.53;;;15.10;94.00;;;;;;5017339;28;20054;-54
2023/05/12 03:10:29;;;;;;;7.78;4.15;;;15.10;94.00;;;;;;4984047;28;20023;-54
2023/05/12 03:12:55;;;;;;;10.85;4.05;;;15.10;94.30;;;;;;4983190;28;20073;-54
2023/05/12 03:15:20;;;;;;;10.25;4.40;;;15.10;94.20;;;;;;4984915;28;20034;-54
2023/05/12 03:17:46;;;;;;;10.13;4.60;;;15.10;94.10;;;;;;5017168;28;20038;-54
2023/05/12 03:20:12;;;;;;;9.90;4.03;;;15.10;94.10;;;;;;5016498;28;20031;-54
2023/05/12 03:22:37;;;;;;;7.40;4.15;;;15.10;94.10;;;;;;4987964;28;20448;-54
2023/05/12 03:25:04;;;;;;;11.57;4.20;;;15.10;94.10;;;;;;4988824;28;20058;-54
2023/05/12 03:27:31;;;;;;;9.13;4.38;;;15.00;94.10;;;;;;4988050;28;20560;-54
2023/05/12 03:29:59;;;;;;;8.45;4.10;;;15.10;94.10;;;;;;4988136;28;20034;-54
2023/05/12 03:32:25;;;;;;;10.75;4.50;;;15.00;94.10;;;;;;4987997;28;20034;-54
2023/05/12 03:34:50;;;;;;;10.88;4.45;;;15.00;94.20;;;;;;4989083;28;20041;-54
2023/05/12 03:37:16;;;;;;;9.98;4.50;;;15.00;94.10;;;;;;4987285;28;20027;-54
2023/05/12 03:39:41;;;;;;;11.07;5.40;;;15.00;94.10;;;;;;4988015;28;20041;-54
2023/05/12 03:42:07;;;;;;;8.55;4.70;;;15.00;94.10;;;;;;4987593;28;20095;-54
2023/05/12 03:44:32;;;;;;;8.27;4.95;;;15.00;94.10;;;;;;4989409;28;20058;-54
2023/05/12 03:46:58;;;;;;;9.75;4.93;;;15.00;94.10;;;;;;4987415;28;20029;-54
2023/05/12 03:49:23;;;;;;;8.82;4.85;;;15.00;94.10;;;;;;4988241;28;20034;-54
2023/05/12 03:51:49;;;;;;;9.45;5.68;;;15.00;94.10;;;;;;4986011;28;20053;-54
2023/05/12 03:54:14;;;;;;;84.10;11.32;;;14.90;94.10;;;;;;5020115;28;20055;-54
2023/05/12 03:56:40;;;;;;;63.67;11.70;;;14.90;94.10;;;;;;4987685;28;20033;-54
2023/05/12 03:59:05;;;;;;;79.65;12.13;;;15.00;94.10;;;;;;4987406;28;20471;-54
2023/05/12 04:01:31;;;;;;;96.18;13.00;;;15.00;94.10;;;;;;4988538;28;20027;-54
2023/05/12 04:03:56;;;;;;;62.15;10.75;;;14.90;94.10;;;;;;4987282;28;20113;-54
2023/05/12 04:06:22;;;;;;;54.22;9.32;;;14.90;94.10;;;;;;4986361;28;20042;-54
2023/05/12 04:08:47;;;;;;;42.55;8.77;;;14.90;94.10;;;;;;4988782;28;20035;-54
2023/05/12 04:11:13;;;;;;;47.45;7.95;;;14.90;94.10;;;;;;4987544;28;20033;-54
2023/05/12 04:13:38;;;;;;;32.50;7.47;;;15.00;94.10;;;;;;4988960;28;20031;-54
2023/05/12 04:16:04;;;;;;;36.40;7.63;;;14.90;94.10;;;;;;4988704;28;20098;-54
2023/05/12 04:18:30;;;;;;;33.50;7.15;;;14.90;94.10;;;;;;4986253;28;20027;-54
2023/05/12 04:20:55;;;;;;;34.40;6.90;;;14.90;94.10;;;;;;4971231;28;20126;-54
2023/05/12 04:23:21;;;;;;;18.50;5.65;;;14.90;94.10;;;;;;4987113;28;20050;-54
2023/05/12 04:25:46;;;;;;;35.55;6.68;;;14.90;94.10;;;;;;4986505;28;20046;-54
2023/05/12 04:28:12;;;;;;;32.97;6.75;;;14.90;94.30;;;;;;4987253;28;20026;-54
2023/05/12 04:30:41;;;;;;;27.80;6.07;;;14.90;94.10;;;;;;4988067;28;20105;-54
2023/05/12 04:33:07;;;;;;;24.98;6.82;;;14.90;94.00;;;;;;4985821;28;20083;-54
2023/05/12 04:35:32;;;;;;;28.23;5.93;;;14.90;94.00;;;;;;4987361;28;20058;-54
2023/05/12 04:38:00;;;;;;;22.02;5.85;;;14.90;94.00;;;;;;4987443;28;20069;-54
2023/05/12 04:40:25;;;;;;;31.02;6.72;;;14.90;94.00;;;;;;4988200;28;20062;-54
2023/05/12 04:42:51;;;;;;;26.58;5.78;;;14.90;94.30;;;;;;4986723;28;20110;-54
2023/05/12 04:45:17;;;;;;;26.52;5.65;;;14.90;94.00;;;;;;4988280;28;20114;-54
2023/05/12 04:47:42;;;;;;;27.85;6.28;;;14.90;94.00;;;;;;4987285;28;20042;-54
2023/05/12 04:50:09;;;;;;;27.58;5.65;;;14.90;94.00;;;;;;4986955;28;20169;-54
2023/05/12 04:52:35;;;;;;;24.83;5.75;;;14.90;94.00;;;;;;4987590;28;20057;-54
2023/05/12 04:55:00;;;;;;;15.70;5.28;;;14.90;94.00;;;;;;4986598;28;20054;-54
2023/05/12 04:57:26;;;;;;;14.65;5.10;;;14.90;94.00;;;;;;4987373;28;20041;-53
2023/05/12 04:59:52;;;;;;;24.60;6.78;;;14.90;94.10;;;;;;4987812;28;20098;-54
2023/05/12 05:02:17;;;;;;;25.13;5.95;;;14.90;94.10;;;;;;4987704;28;20035;-53
2023/05/12 05:04:43;;;;;;;18.42;5.53;;;14.90;94.30;;;;;;4984746;28;20043;-54
2023/05/12 05:07:09;;;;;;;25.08;5.97;;;14.90;94.30;;;;;;4971754;28;20110;-54
2023/05/12 05:09:34;;;;;;;19.83;5.20;;;14.90;94.40;;;;;;4986154;28;20034;-54
2023/05/12 05:12:00;;;;;;;20.17;5.00;;;14.90;94.40;;;;;;4969418;28;20023;-54
2023/05/12 05:14:25;;;;;;;22.48;5.30;;;14.80;94.40;;;;;;4986679;28;20054;-54
2023/05/12 05:16:51;;;;;;;18.02;5.05;;;14.90;94.50;;;;;;4987290;28;20031;-54
2023/05/12 05:19:16;;;;;;;15.80;4.60;;;14.80;94.40;;;;;;4986326;28;20039;-54
2023/05/12 05:21:42;;;;;;;20.65;5.72;;;14.80;94.40;;;;;;4983997;28;20066;-54
2023/05/12 05:24:07;;;;;;;20.05;4.80;;;14.80;94.40;;;;;;4985445;28;20027;-54
2023/05/12 05:26:33;;;;;;;19.63;4.72;;;14.80;94.40;;;;;;4986543;28;20031;-54
2023/05/12 05:28:59;;;;;;;12.20;4.25;;;14.80;94.40;;;;;;4970179;28;20050;-54
2023/05/12 05:31:27;;;;;;;15.52;4.93;;;14.80;94.40;;;;;;4984924;28;20424;-54
2023/05/12 05:33:53;;;;;;;13.63;4.50;;;14.80;94.40;;;;;;4970499;28;20050;-54
2023/05/12 05:36:19;;;;;;;13.65;4.80;;;14.80;94.40;;;;;;4984727;28;20030;-54
2023/05/12 05:38:44;;;;;;;17.05;4.68;;;14.80;94.30;;;;;;4986192;28;20049;-54
2023/05/12 05:41:10;;;;;;;15.27;4.93;;;14.80;94.30;;;;;;4985015;28;20034;-54
2023/05/12 05:43:35;;;;;;;26.05;5.75;;;14.80;94.30;;;;;;4984714;28;20026;-54
2023/05/12 05:46:01;;;;;;;17.60;4.28;;;14.90;94.30;;;;;;4986367;28;20089;-54
2023/05/12 05:48:26;;;;;;;13.88;4.25;;;14.90;94.20;;;;;;4985689;28;20391;-54
2023/05/12 05:50:52;;;;;;;17.50;4.30;;;14.90;94.20;;;;;;4985527;28;20479;-54
2023/05/12 05:53:18;;;;;;;16.25;4.63;;;14.90;94.20;;;;;;4985197;28;20050;-54
2023/05/12 05:55:44;;;;;;;15.77;3.92;;;14.90;94.10;;;;;;4984978;28;20038;-54
2023/05/12 05:58:10;;;;;;;13.85;3.85;;;14.90;94.10;;;;;;4985645;28;20031;-53
2023/05/12 06:00:35;;;;;;;13.68;3.92;;;14.90;94.10;;;;;;4986101;28;20035;-54
2023/05/12 06:03:01;;;;;;;15.15;4.18;;;14.90;94.10;;;;;;4985138;28;20037;-54
2023/05/12 06:05:26;;;;;;;8.00;3.92;;;15.00;94.00;;;;;;4985078;28;20058;-54
2023/05/12 06:07:52;;;;;;;8.40;3.55;;;14.90;94.00;;;;;;4985793;28;20033;-54
2023/05/12 06:10:18;;;;;;;7.60;3.40;;;14.90;93.90;;;;;;4985308;28;20022;-54
2023/05/12 06:12:43;;;;;;;9.50;3.50;;;15.00;93.90;;;;;;4986609;28;20061;-54
2023/05/12 06:15:09;;;;;;;11.23;3.85;;;14.90;94.10;;;;;;4984676;28;20051;-54
2023/05/12 06:17:35;;;;;;;8.65;3.47;;;15.00;93.80;;;;;;4985154;28;20035;-54
2023/05/12 06:20:01;;;;;;;15.27;4.10;;;15.00;93.80;;;;;;4984574;28;20173;-54
2023/05/12 06:22:27;;;;;;;15.30;3.28;;;15.00;93.80;;;;;;4983670;28;20027;-54
2023/05/12 06:24:52;;;;;;;12.73;3.65;;;15.00;93.70;;;;;;4984388;28;20349;-54
2023/05/12 06:27:18;;;;;;;12.15;3.47;;;15.00;93.70;;;;;;4985351;28;20086;-54
2023/05/12 06:29:43;;;;;;;6.65;3.15;;;15.00;93.70;;;;;;4983172;28;20035;-54
2023/05/12 06:32:09;;;;;;;7.90;3.42;;;15.00;93.60;;;;;;5000606;28;20031;-54
2023/05/12 06:34:35;;;;;;;7.72;3.60;;;15.00;93.60;;;;;;4984061;28;20090;-54
2023/05/12 06:37:00;;;;;;;11.43;3.63;;;15.10;93.60;;;;;;4967874;28;20054;-54
2023/05/12 06:39:26;;;;;;;15.00;4.00;;;15.10;93.50;;;;;;4986326;28;20153;-54
2023/05/12 06:41:51;;;;;;;11.88;3.35;;;15.10;93.50;;;;;;4985629;28;20094;-54
2023/05/12 06:44:17;;;;;;;26.75;4.50;;;15.10;93.50;;;;;;4984265;28;20042;-54
2023/05/12 06:46:42;;;;;;;15.70;4.22;;;15.10;93.50;;;;;;4985145;28;20033;-54
2023/05/12 06:49:08;;;;;;;18.65;4.63;;;15.20;93.50;;;;;;4983339;28;20126;-54
2023/05/12 06:51:34;;;;;;;17.23;4.40;;;15.10;93.60;;;;;;4983828;28;20027;-54
2023/05/12 06:54:00;;;;;;;14.60;4.07;;;15.20;93.60;;;;;;4984430;28;20030;-53
2023/05/12 06:56:28;;;;;;;15.52;3.70;;;15.20;93.60;;;;;;4983897;28;20106;-54
2023/05/12 06:58:57;;;;;;;15.57;3.80;;;15.20;93.60;;;;;;4983728;28;20125;-54
2023/05/12 07:01:23;;;;;;;21.35;4.20;;;15.30;93.50;;;;;;4983976;28;20026;-54
2023/05/12 07:03:48;;;;;;;22.23;4.43;;;15.30;93.50;;;;;;4983756;28;20050;-54
2023/05/12 07:06:14;;;;;;;37.20;5.93;;;15.30;93.60;;;;;;4982895;28;20031;-54
2023/05/12 07:08:40;;;;;;;29.95;5.25;;;15.30;93.60;;;;;;4985853;28;20381;-54
2023/05/12 07:11:05;;;;;;;40.10;6.03;;;15.40;93.50;;;;;;5016626;28;20038;-54
2023/05/12 07:13:31;;;;;;;65.07;8.73;;;15.40;93.50;;;;;;4983600;28;20023;-54
2023/05/12 07:15:56;;;;;;;48.22;6.60;;;15.40;93.40;;;;;;4983448;28;20054;-55
2023/05/12 07:18:22;;;;;;;49.92;7.70;;;15.40;93.30;;;;;;4984648;28;20105;-54
2023/05/12 07:20:47;;;;;;;72.88;8.15;;;15.40;93.30;;;;;;4982923;28;20372;-54
2023/05/12 07:23:13;;;;;;;31.27;6.47;;;15.40;93.20;;;;;;5000470;28;20038;-54
2023/05/12 07:25:39;;;;;;;61.22;9.48;;;15.50;93.20;;;;;;4999682;28;20057;-54
2023/05/12 07:28:04;;;;;;;50.88;6.75;;;15.50;93.20;;;;;;4983233;28;20077;-53
2023/05/12 07:30:30;;;;;;;32.83;5.82;;;15.50;93.30;;;;;;4983647;28;20336;-54
2023/05/12 07:32:56;;;;;;;46.58;7.38;;;15.50;93.10;;;;;;4984349;28;20031;-54
2023/05/12 07:35:22;;;;;;;59.45;7.82;;;15.60;93.20;;;;;;4965403;28;20027;-54
2023/05/12 07:37:47;;;;;;;46.10;7.90;;;15.60;93.20;;;;;;4966162;29;20051;-53
2023/05/12 07:40:13;;;;;;;52.28;7.97;;;15.60;93.20;;;;;;4982232;28;20031;-54
2023/05/12 07:42:38;;;;;;;25.08;5.50;;;15.60;93.10;;;;;;4985297;28;20030;-54
2023/05/12 07:45:04;;;;;;;25.23;5.10;;;15.60;93.00;;;;;;4983693;28;20536;-54
2023/05/12 07:47:30;;;;;;;70.78;9.57;;;15.70;92.90;;;;;;4984410;28;20096;-54
2023/05/12 07:49:55;;;;;;;61.95;8.63;;;15.70;93.20;;;;;;4982904;28;20099;-59
2023/05/12 07:52:21;;;;;;;53.72;8.07;;;15.70;93.20;;;;;;4963614;28;20480;-59
2023/05/12 07:54:46;;;;;;;69.70;9.82;;;15.70;93.30;;;;;;4979551;28;20039;-59
2023/05/12 07:57:12;;;;;;;51.47;8.60;;;15.80;93.20;;;;;;4983358;28;20034;-59
2023/05/12 07:59:37;;;;;;;55.25;7.07;;;15.80;93.10;;;;;;4983992;28;20043;-59
2023/05/12 08:02:03;;;;;;;52.17;7.93;;;15.80;93.00;;;;;;4982803;28;20042;-59
2023/05/12 08:04:29;;;;;;;39.75;6.15;;;15.80;92.80;;;;;;4983828;28;20023;-59
2023/05/12 08:06:55;;;;;;;97.90;11.57;;;15.80;93.00;;;;;;4985205;28;20023;-59
2023/05/12 08:09:20;;;;;;;79.43;11.38;;;15.90;93.00;;;;;;4989669;28;20022;-59
2023/05/12 08:11:46;;;;;;;128.35;14.75;;;15.90;92.70;;;;;;4988421;28;20039;-59
2023/05/12 08:14:11;;;;;;;81.47;10.20;;;15.90;92.70;;;;;;4988675;28;20033;-59
2023/05/12 08:16:37;;;;;;;71.32;10.52;;;15.90;92.70;;;;;;4988301;28;20034;-59
2023/05/12 08:19:03;;;;;;;117.78;12.32;;;16.00;93.00;;;;;;4988691;28;20054;-59
2023/05/12 08:21:28;;;;;;;86.93;9.73;;;16.00;92.60;;;;;;4989747;28;20026;-59
2023/05/12 08:23:54;;;;;;;67.20;10.43;;;16.00;92.60;;;;;;4988764;28;20033;-59
2023/05/12 08:26:20;;;;;;;64.68;10.23;;;16.00;92.50;;;;;;4994679;28;20049;-59
2023/05/12 08:28:45;;;;;;;78.50;9.68;;;16.00;92.50;;;;;;4986662;28;20453;-57
2023/05/12 08:31:11;;;;;;;78.80;9.02;;;16.00;92.40;;;;;;4984021;28;20030;-57
2023/05/12 08:33:36;;;;;;;114.95;13.15;;;16.10;92.40;;;;;;4967366;28;20086;-59
2023/05/12 08:36:02;;;;;;;336.45;32.83;;;16.10;92.40;;;;;;4969326;28;20038;-59
2023/05/12 08:38:28;;;;;;;79.18;11.75;;;16.10;92.40;;;;;;5016443;28;20030;-59
2023/05/12 08:41:16;;;;;;;97.72;11.93;;;16.20;92.30;;;;;;4984998;28;20340;-60
2023/05/12 08:43:51;;;;;;;105.28;14.68;;;16.20;92.30;;;;;;4985056;28;20400;-60
2023/05/12 08:46:16;;;;;;;121.00;14.32;;;16.20;92.30;;;;;;4989855;28;20491;-58
2023/05/12 08:48:43;;;;;;;78.63;10.95;;;16.20;92.20;;;;;;4997002;28;20045;-60
2023/05/12 08:51:10;;;;;;;63.35;9.02;;;16.20;92.20;;;;;;4972460;28;20120;-59
2023/05/12 08:53:37;;;;;;;50.42;8.27;;;16.30;92.10;;;;;;4993850;28;20054;-60
2023/05/12 08:56:04;;;;;;;49.53;7.70;;;16.30;92.00;;;;;;4985586;28;20066;-59
2023/05/12 08:58:30;;;;;;;50.78;7.13;;;16.30;92.00;;;;;;4981572;28;20044;-59
2023/05/12 09:00:55;;;;;;;54.25;7.15;;;16.30;92.00;;;;;;4978184;28;20031;-57
2023/05/12 09:03:21;;;;;;;58.05;7.80;;;16.40;91.90;;;;;;4979778;28;20031;-59
2023/05/12 09:05:46;;;;;;;62.22;8.23;;;16.40;91.90;;;;;;4987094;28;20065;-60
2023/05/12 09:08:12;;;;;;;42.35;7.25;;;16.40;91.90;;;;;;4989029;28;20030;-60
2023/05/12 09:10:37;;;;;;;44.42;7.22;;;16.50;91.80;;;;;;4993126;28;20107;-60
2023/05/12 09:13:10;;;;;;;39.90;6.70;;;16.40;91.80;;;;;;4998324;28;20026;-59
2023/05/12 09:15:38;;;;;;;39.65;6.97;;;16.50;91.80;;;;;;4972692;28;20043;-59
2023/05/12 09:18:04;;;;;;;32.50;5.68;;;16.50;91.60;;;;;;4989356;28;20149;-58
2023/05/12 09:20:29;;;;;;;36.72;6.20;;;16.60;91.50;;;;;;4991399;28;20039;-59
2023/05/12 09:22:57;;;;;;;43.03;6.75;;;16.60;91.40;;;;;;4994565;28;20030;-59
2023/05/12 09:25:22;;;;;;;42.95;6.78;;;16.60;91.40;;;;;;5000246;28;20038;-59
2023/05/12 09:27:48;;;;;;;44.22;6.43;;;16.70;91.30;;;;;;4986953;28;20027;-59
2023/05/12 09:30:14;;;;;;;32.50;5.85;;;16.70;91.20;;;;;;4983568;28;20033;-59
2023/05/12 09:32:40;;;;;;;35.50;6.68;;;16.80;91.40;;;;;;4983265;28;20034;-55
2023/05/12 09:35:10;;;;;;;33.75;6.55;;;16.80;91.00;;;;;;4993918;28;20031;-54
2023/05/12 09:37:35;;;;;;;51.05;7.53;;;16.80;91.00;;;;;;4998057;28;20031;-54
2023/05/12 09:40:02;;;;;;;61.25;8.77;;;16.90;90.90;;;;;;4988307;28;20546;-54
2023/05/12 09:42:29;;;;;;;46.50;6.72;;;16.90;90.80;;;;;;4991252;28;20093;-54
2023/05/12 09:44:59;;;;;;;41.55;7.00;;;16.90;91.00;;;;;;4992239;28;20094;-55
2023/05/12 09:47:32;;;;;;;41.35;7.35;;;16.90;90.90;;;;;;4998187;28;20054;-54
2023/05/12 09:49:58;;;;;;;42.95;7.00;;;17.00;91.10;;;;;;4993506;28;20440;-54
2023/05/12 09:52:24;;;;;;;51.55;6.93;;;17.00;90.70;;;;;;4980814;28;20031;-54
2023/05/12 09:54:51;;;;;;;37.50;6.30;;;17.10;90.60;;;;;;4988675;28;20053;-54
2023/05/12 09:57:17;;;;;;;40.58;6.60;;;17.10;90.50;;;;;;4995583;28;20034;-54
2023/05/12 09:59:42;;;;;;;34.88;6.20;;;17.10;90.40;;;;;;4991209;28;20115;-54
2023/05/12 10:02:08;;;;;;;53.90;7.00;;;17.10;90.40;;;;;;4981175;28;20447;-54
2023/05/12 10:05:00;;;;;;;52.58;7.35;;;17.20;90.30;;;;;;4983628;28;20094;-54
2023/05/12 10:07:26;;;;;;;52.35;8.00;;;17.20;90.20;;;;;;4970987;28;20082;-54
2023/05/12 10:09:52;;;;;;;37.92;6.40;;;17.20;90.20;;;;;;4984819;28;20041;-54
2023/05/12 10:12:17;;;;;;;39.15;6.22;;;17.30;90.10;;;;;;4983679;28;20027;-55
2023/05/12 10:14:43;;;;;;;44.75;6.82;;;17.30;89.80;;;;;;4983380;28;20090;-54
2023/05/12 10:17:09;;;;;;;33.35;6.10;;;17.30;89.60;;;;;;4984227;28;20049;-54
2023/05/12 10:19:35;;;;;;;35.47;5.35;;;17.30;89.50;;;;;;4968781;28;20054;-54
2023/05/12 10:22:00;;;;;;;40.22;5.85;;;17.30;89.30;;;;;;4983974;28;20034;-54
2023/05/12 10:24:26;;;;;;;29.13;5.20;;;17.40;89.10;;;;;;4979516;28;20026;-54
2023/05/12 10:26:56;;;;;;;40.03;5.25;;;17.40;88.80;;;;;;4968256;28;20031;-54
2023/05/12 10:29:28;;;;;;;29.70;5.45;;;17.40;88.70;;;;;;4984993;28;20035;-54
2023/05/12 10:31:56;;;;;;;26.80;5.57;;;17.50;88.70;;;;;;4983400;28;20050;-54
2023/05/12 10:34:22;;;;;;;33.70;5.32;;;17.40;88.50;;;;;;4981176;28;20044;-54
2023/05/12 10:36:49;;;;;;;34.33;5.28;;;17.50;88.50;;;;;;4955115;28;20095;-54
2023/05/12 10:39:15;;;;;;;31.63;5.05;;;17.50;88.00;;;;;;4980975;28;20047;-54
2023/05/12 10:41:44;;;;;;;34.85;5.53;;;17.50;88.10;;;;;;4978430;28;20031;-54
2023/05/12 10:44:09;;;;;;;44.92;6.05;;;17.60;87.90;;;;;;4993192;28;20027;-54
2023/05/12 10:46:35;;;;;;;56.22;7.43;;;17.60;87.70;;;;;;4983073;28;20054;-54
2023/05/12 10:49:03;;;;;;;73.13;7.97;;;17.60;87.10;;;;;;4964672;28;20031;-54
2023/05/12 10:51:29;;;;;;;86.60;9.85;;;17.70;86.50;;;;;;4973458;28;20019;-54
2023/05/12 10:54:05;;;;;;;52.58;7.65;;;17.70;86.30;;;;;;4984443;28;20039;-54
2023/05/12 10:56:39;;;;;;;36.42;5.70;;;17.70;86.00;;;;;;4982252;28;20066;-55
2023/05/12 10:59:11;;;;;;;108.13;10.38;;;17.80;85.70;;;;;;4981558;28;20098;-54
2023/05/12 11:01:37;;;;;;;78.22;9.55;;;17.80;85.40;;;;;;4980412;28;20031;-54
2023/05/12 11:04:15;;;;;;;63.88;8.35;;;17.90;85.30;;;;;;4963495;28;20051;-54
2023/05/12 11:06:42;;;;;;;55.00;6.60;;;17.90;85.10;;;;;;4968614;28;20450;-54
2023/05/12 11:09:07;;;;;;;44.83;6.95;;;17.90;84.90;;;;;;4988955;28;20040;-54
2023/05/12 11:11:33;;;;;;;46.38;7.30;;;17.90;85.10;;;;;;4990232;28;20043;-54
2023/05/12 11:13:59;;;;;;;80.30;9.13;;;17.90;84.60;;;;;;4980047;28;20099;-54
2023/05/12 11:16:24;;;;;;;63.10;8.15;;;18.00;84.40;;;;;;4962030;29;20046;-54
2023/05/12 11:19:11;;;;;;;40.28;5.80;;;18.00;84.00;;;;;;4962823;29;20058;-54
2023/05/12 11:21:36;;;;;;;55.20;6.90;;;18.10;84.40;;;;;;4964048;28;20092;-54
2023/05/12 11:24:02;;;;;;;43.28;5.85;;;18.10;84.50;;;;;;4962769;29;20054;-54
2023/05/12 11:26:28;;;;;;;42.08;6.68;;;18.10;84.30;;;;;;4963828;28;20027;-54
2023/05/12 11:28:57;;;;;;;49.63;7.57;;;18.10;84.30;;;;;;4964127;29;20042;-54
2023/05/12 11:31:22;;;;;;;50.13;8.02;;;18.10;84.50;;;;;;4977419;28;20027;-54
2023/05/12 11:33:48;;;;;;;51.28;8.35;;;18.20;84.20;;;;;;5000492;28;20031;-54
2023/05/12 11:36:15;;;;;;;57.08;8.77;;;18.20;84.00;;;;;;4991821;28;20470;-54
2023/05/12 11:38:47;;;;;;;66.68;9.63;;;18.20;83.90;;;;;;4999953;28;20050;-54
2023/05/12 11:41:13;;;;;;;68.28;8.63;;;18.30;83.30;;;;;;4984015;28;20053;-54
2023/05/12 11:43:38;;;;;;;70.78;9.75;;;18.30;83.10;;;;;;4987648;28;20031;-55
2023/05/12 11:46:04;;;;;;;66.38;8.95;;;18.30;83.20;;;;;;4987589;28;20480;-54
2023/05/12 11:48:33;;;;;;;61.08;8.50;;;18.30;83.20;;;;;;4970856;28;20030;-54
2023/05/12 11:51:00;;;;;;;69.45;10.15;;;18.30;82.90;;;;;;4971227;28;20140;-54
2023/05/12 11:53:25;;;;;;;71.85;9.90;;;18.30;82.70;;;;;;4971621;28;20051;-54
2023/05/12 11:55:55;;;;;;;64.55;9.55;;;18.30;82.80;;;;;;4969199;28;20053;-54
2023/05/12 11:58:25;;;;;;;56.75;9.70;;;18.40;82.80;;;;;;4985467;28;20038;-54
2023/05/12 12:00:51;;;;;;;59.42;8.80;;;18.40;82.50;;;;;;4969356;28;20038;-54
2023/05/12 12:03:17;;;;;;;62.40;9.45;;;18.50;82.60;;;;;;4984972;28;20114;-54
2023/05/12 12:05:44;;;;;;;62.28;9.05;;;18.50;82.10;;;;;;4985702;28;20054;-54
2023/05/12 12:08:14;;;;;;;47.17;7.68;;;18.60;82.10;;;;;;4984924;28;20027;-54
2023/05/12 12:10:46;;;;;;;62.55;9.05;;;18.60;81.90;;;;;;4982974;28;20050;-54
2023/05/12 12:13:12;;;;;;;64.90;8.63;;;18.70;81.80;;;;;;5002372;28;20031;-54
2023/05/12 12:15:38;;;;;;;52.88;7.78;;;18.80;81.10;;;;;;4985624;28;20051;-54
2023/05/12 12:18:03;;;;;;;57.25;8.07;;;18.90;81.10;;;;;;5014435;28;20349;-54
2023/05/12 12:20:29;;;;;;;60.88;9.70;;;19.00;80.90;;;;;;4981472;28;20098;-54
2023/05/12 12:22:55;;;;;;;55.45;8.50;;;19.10;80.40;;;;;;4979541;28;20049;-54
2023/05/12 12:25:20;;;;;;;56.28;9.02;;;19.10;80.00;;;;;;4964978;28;20023;-54
2023/05/12 12:27:46;;;;;;;43.20;8.00;;;19.20;79.50;;;;;;4966152;29;20090;-54
2023/05/12 12:30:13;;;;;;;56.67;9.00;;;19.30;79.40;;;;;;4966354;28;20046;-54
2023/05/12 12:32:39;;;;;;;59.80;8.38;;;19.30;79.40;;;;;;4968690;28;20058;-58